createdAt,value
2022-09-29T00:07:06.408Z,7.6
2022-09-29T00:17:06.962Z,7.7
2022-09-29T00:27:07.584Z,7.7
2022-09-29T00:37:08.198Z,7.5
2022-09-29T00:47:09.093Z,7.3
2022-09-29T00:57:09.865Z,7.2
2022-09-29T01:07:10.639Z,7.2
2022-09-29T01:17:11.406Z,7.2
2022-09-29T01:27:12.292Z,7.2
2022-09-29T01:37:13.063Z,7.2
2022-09-29T01:47:13.790Z,7.4
2022-09-29T01:57:14.089Z,7.4
2022-09-29T02:07:15.091Z,7.3
2022-09-29T02:17:15.500Z,7.1
2022-09-29T02:27:16.081Z,7
2022-09-29T02:37:17.110Z,6.9
2022-09-29T02:57:18.623Z,6.8
2022-09-29T03:07:18.800Z,7
2022-09-29T03:17:19.351Z,7.1
2022-09-29T03:27:19.829Z,7.1
2022-09-29T03:37:20.295Z,7.1
2022-09-29T03:47:20.677Z,7.1
2022-09-29T03:57:21.363Z,7
2022-09-29T04:07:21.861Z,6.9
2022-09-29T04:17:22.581Z,6.8
2022-09-29T04:27:23.237Z,6.7
2022-09-29T04:37:23.653Z,6.7
2022-09-29T04:47:23.905Z,6.6
2022-09-29T04:57:24.113Z,6.6
2022-09-29T05:07:24.542Z,6.7
2022-09-29T05:17:24.753Z,6.9
2022-09-29T05:27:25.808Z,6.9
2022-09-29T05:37:26.544Z,6.7
2022-09-29T05:47:27.480Z,6.7
2022-09-29T05:57:28.096Z,6.7
2022-09-29T06:07:28.172Z,6.6
2022-09-29T06:17:28.543Z,6.8
2022-09-29T06:27:29.448Z,7
2022-09-29T06:37:30.406Z,7.2
2022-09-29T06:47:31.169Z,7.5
2022-09-29T06:57:31.846Z,7.7
2022-09-29T07:07:32.844Z,7.8
2022-09-29T07:17:33.144Z,8.1
2022-09-29T07:27:33.818Z,8.4
2022-09-29T07:37:34.350Z,8.8
2022-09-29T07:57:35.498Z,9.7
2022-09-29T08:07:36.103Z,10.2
2022-09-29T08:17:36.579Z,10.4
2022-09-29T08:37:37.913Z,11.1
2022-09-29T08:57:38.841Z,11.5
2022-09-29T09:07:39.579Z,11.6
2022-09-29T09:17:39.913Z,11.8
2022-09-29T09:27:40.433Z,12.2
2022-09-29T09:37:40.698Z,12.5
2022-09-29T09:47:41.605Z,12.2
2022-09-29T09:57:42.247Z,12.6
2022-09-29T10:07:42.341Z,13.1
2022-09-29T10:17:42.409Z,13.7
2022-09-29T10:27:43.453Z,13.4
2022-09-29T10:37:44.451Z,13.7
2022-09-29T10:47:44.872Z,13.9
2022-09-29T10:57:45.754Z,14.1
2022-09-29T11:17:46.481Z,14.7
2022-09-29T11:27:47.058Z,14.5
2022-09-29T11:37:47.804Z,14.6
2022-09-29T11:47:48.858Z,14.8
2022-09-29T11:57:49.419Z,14.9
2022-09-29T12:07:49.976Z,15
2022-09-29T12:17:50.493Z,15.2
2022-09-29T12:27:51.427Z,14.9
2022-09-29T12:37:51.775Z,14.7
2022-09-29T12:57:52.445Z,14.4
2022-09-29T13:07:52.551Z,14.1
2022-09-29T13:17:52.990Z,14.1
2022-09-29T13:27:53.615Z,14
2022-09-29T13:37:54.165Z,14
2022-09-29T13:47:54.431Z,14
2022-09-29T13:58:03.159Z,14.1
2022-09-29T14:08:04.028Z,14.2
2022-09-29T14:18:05.038Z,14.2
2022-09-29T14:28:05.611Z,14.5
2022-09-29T14:38:05.868Z,14.8
2022-09-29T14:48:06.917Z,14.8
2022-09-29T14:58:07.956Z,14.8
2022-09-29T15:08:08.895Z,14.9
2022-09-29T15:18:09.272Z,14.7
2022-09-29T15:28:09.551Z,14.7
2022-09-29T15:38:10.144Z,14.9
2022-09-29T15:48:11.175Z,14.9
2022-09-29T15:58:11.933Z,14.5
2022-09-29T16:08:12.856Z,14.5
2022-09-29T16:18:13.624Z,14.6
2022-09-29T16:38:14.469Z,14.3
2022-09-29T17:28:16.509Z,12.3
2022-09-29T18:18:20.739Z,10.6
2022-09-29T18:28:21.340Z,10.4
2022-09-29T18:48:23.100Z,9.8
2022-09-29T18:58:24.015Z,9.7
2022-09-29T19:08:24.854Z,9.5
2022-09-29T19:18:25.802Z,9.3
2022-09-29T19:28:26.481Z,9.2
2022-09-29T19:38:26.740Z,8.9
2022-09-29T19:48:27.273Z,9
2022-09-29T19:58:27.891Z,8.8
2022-09-29T20:08:28.551Z,8.6
2022-09-29T20:58:32.016Z,8.3
2022-09-29T22:18:41.415Z,7.7
2022-09-29T22:28:36.389Z,7.7
2022-09-29T22:48:37.683Z,7.5
2022-09-29T22:58:38.111Z,7.5
2022-09-29T23:08:38.283Z,7.5
2022-09-29T23:58:41.999Z,7.1
